Time;durP1;ratioP1;P1;durP2;ratioP2;P2;SDS_P1;SDS_P2;PMS_P1;PMS_P2;Temp;Humidity;BMP_temperature;BMP_pressure;BME280_temperature;BME280_humidity;BME280_pressure;Samples;Min_cycle;Max_cycle;Signal;HPM_P1;HPM_P2
2023/07/10 00:00:56;;;;;;;;;;;;;;;27.21;34.00;101945.50;5054870;28;19952;-87
2023/07/10 00:03:21;;;;;;;;;;;;;;;27.20;34.13;101946.66;5052616;28;20095;-87
2023/07/10 00:05:46;;;;;;;;;;;;;;;27.20;34.24;101940.34;5049083;28;20006;-87
2023/07/10 00:08:12;;;;;;;;;;;;;;;27.17;34.41;101936.31;5054893;28;19967;-87
2023/07/10 00:10:37;;;;;;;;;;;;;;;27.14;34.36;101930.66;5057078;28;19920;-88
2023/07/10 00:13:03;;;;;;;;;;;;;;;27.11;34.43;101937.66;5055965;28;19916;-88
2023/07/10 00:15:28;;;;;;;;;;;;;;;27.06;34.41;101932.31;5056833;28;19931;-87
2023/07/10 00:17:53;;;;;;;;;;;;;;;27.07;34.49;101936.66;5049795;28;19923;-87
2023/07/10 00:20:23;;;;;;;;;;;;;;;27.04;34.49;101943.66;5057601;28;19990;-87
2023/07/10 00:22:48;;;;;;;;;;;;;;;27.03;34.73;101938.47;5051919;28;19975;-87
2023/07/10 00:25:17;;;;;;;;;;;;;;;27.01;34.82;101938.00;5057262;28;20543;-87
2023/07/10 00:27:43;;;;;;;;;;;;;;;26.97;34.92;101942.53;5056810;28;19928;-87
2023/07/10 00:30:27;;;;;;;;;;;;;;;26.92;34.85;101939.94;5053063;28;20479;-87
2023/07/10 00:32:53;;;;;;;;;;;;;;;26.89;34.95;101935.91;5050308;28;20006;-87
2023/07/10 00:35:22;;;;;;;;;;;;;;;26.84;35.10;101938.03;5048312;28;19929;-87
2023/07/10 00:37:49;;;;;;;;;;;;;;;26.78;35.13;101935.50;5052630;28;20011;-87
2023/07/10 00:40:22;;;;;;;;;;;;;;;26.76;35.13;101935.00;5051902;28;19916;-86
2023/07/10 00:42:51;;;;;;;;;;;;;;;26.73;35.38;101938.41;5056015;28;19924;-87
2023/07/10 00:45:17;;;;;;;;;;;;;;;26.72;35.32;101933.22;5052013;28;19921;-87
2023/07/10 00:47:45;;;;;;;;;;;;;;;26.69;35.38;101948.44;5049048;28;19924;-86
2023/07/10 00:50:10;;;;;;;;;;;;;;;26.67;35.36;101944.41;5052679;28;19921;-87
2023/07/10 00:52:39;;;;;;;;;;;;;;;26.65;35.42;101943.94;5053072;28;20301;-86
2023/07/10 00:55:13;;;;;;;;;;;;;;;26.62;35.67;101936.34;5049025;28;20152;-87
2023/07/10 00:57:40;;;;;;;;;;;;;;;26.56;35.66;101938.44;5052863;28;19921;-87
2023/07/10 01:00:17;;;;;;;;;;;;;;;26.54;35.67;101937.97;5048725;28;19925;-87
2023/07/10 01:02:42;;;;;;;;;;;;;;;26.51;35.79;101935.88;5045480;28;20387;-87
2023/07/10 01:05:08;;;;;;;;;;;;;;;26.46;35.87;101930.56;5061000;28;19921;-87
2023/07/10 01:07:36;;;;;;;;;;;;;;;26.39;35.89;101922.84;5051680;28;19967;-86
2023/07/10 01:10:06;;;;;;;;;;;;;;;26.34;35.90;101925.69;5057526;28;19917;-88
2023/07/10 01:12:31;;;;;;;;;;;;;;;26.29;36.09;101925.88;5057803;28;19974;-87
2023/07/10 01:14:57;;;;;;;;;;;;;;;26.23;36.14;101924.44;5055916;28;19921;-86
2023/07/10 01:17:22;;;;;;;;;;;;;;;26.17;36.14;101915.56;5063823;28;19916;-87
2023/07/10 01:19:48;;;;;;;;;;;;;;;26.14;36.25;101918.94;5065246;28;19920;-87
2023/07/10 01:22:14;;;;;;;;;;;;;;;26.10;36.29;101923.50;5057141;28;20351;-87
2023/07/10 01:24:39;;;;;;;;;;;;;;;26.03;36.58;101917.69;5059100;28;19921;-87
2023/07/10 01:27:07;;;;;;;;;;;;;;;26.02;36.43;101913.31;5062754;28;19970;-88
2023/07/10 01:29:41;;;;;;;;;;;;;;;26.01;36.39;101911.69;5057412;28;20393;-87
2023/07/10 01:32:08;;;;;;;;;;;;;;;26.00;36.41;101912.81;5065691;28;19928;-87
2023/07/10 01:34:37;;;;;;;;;;;;;;;25.96;36.90;101911.88;5056726;28;20468;-87
2023/07/10 01:37:03;;;;;;;;;;;;;;;25.94;36.55;101925.13;5059911;28;19921;-88
2023/07/10 01:39:40;;;;;;;;;;;;;;;25.93;36.62;101925.44;5062726;28;19916;-86
2023/07/10 01:42:06;;;;;;;;;;;;;;;25.90;36.66;101927.69;5064808;28;19944;-87
2023/07/10 01:44:35;;;;;;;;;;;;;;;25.87;36.71;101922.06;5060348;28;20290;-87
2023/07/10 01:47:02;;;;;;;;;;;;;;;25.84;36.67;101931.72;5054290;28;20403;-88
2023/07/10 01:49:33;;;;;;;;;;;;;;;25.83;36.81;101921.06;5054903;28;19921;-87
2023/07/10 01:51:59;;;;;;;;;;;;;;;25.80;36.96;101921.72;5068587;28;20027;-87
2023/07/10 01:54:24;;;;;;;;;;;;;;;25.80;37.03;101927.22;5063065;28;19916;-87
2023/07/10 01:56:49;;;;;;;;;;;;;;;25.76;37.09;101927.06;5064071;28;19931;-86
2023/07/10 01:59:15;;;;;;;;;;;;;;;25.74;37.06;101928.50;5056450;28;19920;-87
2023/07/10 02:01:40;;;;;;;;;;;;;;;25.72;37.13;101926.09;5064432;28;20402;-86
2023/07/10 02:04:06;;;;;;;;;;;;;;;25.71;37.04;101931.91;5058032;28;19924;-87
2023/07/10 02:06:34;;;;;;;;;;;;;;;25.67;37.19;101926.19;5066949;28;19928;-86
2023/07/10 02:08:59;;;;;;;;;;;;;;;25.67;37.08;101917.16;5063745;28;19927;-87
2023/07/10 02:11:24;;;;;;;;;;;;;;;25.64;37.18;101906.81;5061472;28;20002;-88
2023/07/10 02:13:50;;;;;;;;;;;;;;;25.63;37.19;101907.94;5062547;28;19921;-87
2023/07/10 02:16:15;;;;;;;;;;;;;;;25.58;37.40;101904.25;5054500;28;20281;-87
2023/07/10 02:18:41;;;;;;;;;;;;;;;25.55;37.46;101899.41;5062113;28;19924;-87
2023/07/10 02:21:06;;;;;;;;;;;;;;;25.54;37.39;101906.03;5061894;28;19993;-86
2023/07/10 02:23:34;;;;;;;;;;;;;;;25.54;37.40;101907.97;5061563;28;20436;-86
2023/07/10 02:26:00;;;;;;;;;;;;;;;25.51;37.55;101903.94;5063279;28;19974;-87
2023/07/10 02:28:25;;;;;;;;;;;;;;;25.47;37.85;101905.66;5059178;28;19920;-87
2023/07/10 02:30:50;;;;;;;;;;;;;;;25.39;37.88;101906.47;5060815;28;19928;-87
2023/07/10 02:33:18;;;;;;;;;;;;;;;25.32;37.83;101900.66;5059213;28;20014;-87
2023/07/10 02:35:44;;;;;;;;;;;;;;;25.28;37.94;101892.25;5068040;28;19924;-87
2023/07/10 02:38:09;;;;;;;;;;;;;;;25.25;38.18;101890.16;5059892;28;19924;-87
2023/07/10 02:40:35;;;;;;;;;;;;;;;25.19;37.97;101890.63;5060668;28;19920;-87
2023/07/10 02:43:00;;;;;;;;;;;;;;;25.17;37.95;101881.91;5065877;28;19920;-87
2023/07/10 02:45:25;;;;;;;;;;;;;;;25.15;38.13;101878.69;5058453;28;20534;-87
2023/07/10 02:47:51;;;;;;;;;;;;;;;25.12;38.04;101884.78;5063375;28;20901;-87
2023/07/10 02:50:16;;;;;;;;;;;;;;;25.10;38.08;101876.88;5059004;28;19921;-87
2023/07/10 02:52:41;;;;;;;;;;;;;;;25.09;38.33;101885.44;5051541;28;19937;-87
2023/07/10 02:55:07;;;;;;;;;;;;;;;25.05;38.40;101882.53;5050041;28;20370;-87
2023/07/10 02:57:32;;;;;;;;;;;;;;;25.06;38.34;101886.88;5061786;28;19920;-87
2023/07/10 02:59:58;;;;;;;;;;;;;;;25.07;38.42;101891.22;5055854;28;20300;-87
2023/07/10 03:02:23;;;;;;;;;;;;;;;25.07;38.29;101883.00;5051530;28;19921;-89
2023/07/10 03:04:48;;;;;;;;;;;;;;;25.09;38.42;101871.72;5055782;28;20565;-88
2023/07/10 03:07:13;;;;;;;;;;;;;;;25.09;38.39;101874.47;5053929;28;19963;-87
2023/07/10 03:09:39;;;;;;;;;;;;;;;25.11;38.54;101874.94;5050697;28;19959;-87
2023/07/10 03:12:04;;;;;;;;;;;;;;;25.12;38.56;101868.34;5054435;28;19924;-87
2023/07/10 03:14:30;;;;;;;;;;;;;;;25.13;38.50;101869.94;5059303;28;19917;-86
2023/07/10 03:16:55;;;;;;;;;;;;;;;25.13;38.67;101867.22;5056413;28;20073;-87
2023/07/10 03:19:20;;;;;;;;;;;;;;;25.11;39.12;101866.72;5057345;28;19924;-86
2023/07/10 03:21:46;;;;;;;;;;;;;;;25.07;38.99;101860.25;5055143;28;20617;-87
2023/07/10 03:24:11;;;;;;;;;;;;;;;25.00;38.97;101858.81;5050158;28;19921;-87
2023/07/10 03:26:36;;;;;;;;;;;;;;;24.98;38.62;101841.84;5055365;28;20368;-87
2023/07/10 03:29:07;;;;;;;;;;;;;;;25.01;39.04;101851.38;5054286;28;19927;-87
2023/07/10 03:31:32;;;;;;;;;;;;;;;25.06;38.96;101853.16;5051686;28;19921;-86
2023/07/10 03:33:58;;;;;;;;;;;;;;;25.10;38.93;101843.97;5058546;28;19977;-87
2023/07/10 03:36:23;;;;;;;;;;;;;;;25.16;39.04;101842.72;5057980;28;19920;-87
2023/07/10 03:38:48;;;;;;;;;;;;;;;25.19;39.00;101839.31;5050948;28;19920;-87
2023/07/10 03:41:13;;;;;;;;;;;;;;;25.25;38.65;101834.50;5057624;28;20304;-87
2023/07/10 03:43:39;;;;;;;;;;;;;;;25.34;38.51;101834.50;5049117;28;19967;-86
2023/07/10 03:46:04;;;;;;;;;;;;;;;25.38;38.94;101822.56;5050921;28;19921;-87
2023/07/10 03:48:29;;;;;;;;;;;;;;;25.44;38.59;101834.19;5051151;28;20211;-86
2023/07/10 03:50:55;;;;;;;;;;;;;;;25.49;38.96;101834.81;5054689;28;20007;-87
2023/07/10 03:53:20;;;;;;;;;;;;;;;25.53;38.83;101833.06;5049612;28;19929;-87
2023/07/10 03:55:48;;;;;;;;;;;;;;;25.57;38.82;101828.53;5052720;28;19937;-87
2023/07/10 03:58:21;;;;;;;;;;;;;;;25.56;38.76;101829.66;5052025;28;19920;-87
2023/07/10 04:00:47;;;;;;;;;;;;;;;25.59;38.46;101820.78;5050101;28;19932;-87
2023/07/10 04:03:12;;;;;;;;;;;;;;;25.66;38.25;101822.22;5048396;28;19921;-87
2023/07/10 04:05:37;;;;;;;;;;;;;;;25.71;38.46;101819.38;5051589;28;20304;-87
2023/07/10 04:08:03;;;;;;;;;;;;;;;25.74;38.24;101815.97;5055184;28;19963;-87
2023/07/10 04:10:28;;;;;;;;;;;;;;;25.78;38.36;101808.69;5048960;28;20300;-87
2023/07/10 04:12:53;;;;;;;;;;;;;;;25.81;38.62;101813.53;5059692;28;20043;-87
2023/07/10 04:15:18;;;;;;;;;;;;;;;25.82;38.57;101799.47;5055499;28;20312;-87
2023/07/10 04:17:44;;;;;;;;;;;;;;;25.86;38.29;101802.41;5059978;28;20019;-86
2023/07/10 04:20:09;;;;;;;;;;;;;;;25.90;38.05;101806.09;5053684;28;19916;-87
2023/07/10 04:22:34;;;;;;;;;;;;;;;25.94;37.95;101798.00;5048292;28;19917;-87
2023/07/10 04:25:05;;;;;;;;;;;;;;;25.98;38.27;101797.00;5051354;28;20380;-87
2023/07/10 04:27:31;;;;;;;;;;;;;;;26.04;38.15;101790.22;5061388;28;19925;-87
2023/07/10 04:29:56;;;;;;;;;;;;;;;26.07;38.14;101792.31;5055752;28;19931;-86
2023/07/10 04:32:22;;;;;;;;;;;;;;;26.08;38.24;101795.88;5053981;28;19920;-87
2023/07/10 04:34:47;;;;;;;;;;;;;;;26.08;38.40;101796.69;5054108;28;19927;-87
2023/07/10 04:37:12;;;;;;;;;;;;;;;26.08;38.50;101796.69;5056204;28;19927;-87
2023/07/10 04:39:37;;;;;;;;;;;;;;;26.08;38.05;101785.69;5058536;28;19996;-87
2023/07/10 04:42:03;;;;;;;;;;;;;;;26.10;37.83;101794.41;5056746;28;20383;-87
2023/07/10 04:44:28;;;;;;;;;;;;;;;26.14;38.17;101792.59;5048269;28;19917;-89
2023/07/10 04:46:54;;;;;;;;;;;;;;;26.18;38.38;101793.56;5055677;28;19931;-86
2023/07/10 04:49:20;;;;;;;;;;;;;;;26.23;38.76;101800.84;5047922;28;19936;-86
2023/07/10 04:51:45;;;;;;;;;;;;;;;26.23;38.87;101800.84;5052831;28;20482;-86
2023/07/10 04:54:10;;;;;;;;;;;;;;;26.21;38.79;101811.31;5059558;28;19917;-85
2023/07/10 04:56:36;;;;;;;;;;;;;;;26.19;38.66;101805.34;5059938;28;19930;-86
2023/07/10 04:59:01;;;;;;;;;;;;;;;26.20;38.45;101805.03;5055548;28;20415;-86
2023/07/10 05:01:28;;;;;;;;;;;;;;;26.28;38.37;101811.63;5055105;28;19917;-85
2023/07/10 05:03:54;;;;;;;;;;;;;;;26.35;38.84;101809.19;5056383;28;20960;-86
2023/07/10 05:06:19;;;;;;;;;;;;;;;26.40;38.63;101800.81;5056429;28;19920;-85
2023/07/10 05:08:44;;;;;;;;;;;;;;;26.49;38.47;101804.31;5054072;28;19924;-86
2023/07/10 05:11:10;;;;;;;;;;;;;;;26.60;38.83;101803.94;5058638;28;19967;-85
2023/07/10 05:13:35;;;;;;;;;;;;;;;26.69;38.89;101805.50;5051735;28;19920;-85
2023/07/10 05:16:01;;;;;;;;;;;;;;;26.79;38.73;101798.81;5050258;28;20355;-85
2023/07/10 05:18:27;;;;;;;;;;;;;;;26.87;38.69;101788.91;5048786;28;19924;-85
2023/07/10 05:20:53;;;;;;;;;;;;;;;26.98;38.39;101773.63;5055540;28;19967;-85
2023/07/10 05:23:18;;;;;;;;;;;;;;;27.10;38.47;101769.00;5050741;28;19952;-85
2023/07/10 05:26:22;;;;;;;;;;;;;;;27.22;38.50;101767.47;5051016;28;20396;-85
2023/07/10 05:28:48;;;;;;;;;;;;;;;27.36;38.60;101779.81;5020393;28;20067;-85
2023/07/10 05:31:13;;;;;;;;;;;;;;;27.49;38.13;101788.94;5015493;28;20012;-85
2023/07/10 05:33:39;;;;;;;;;;;;;;;27.66;38.13;101799.81;5032891;28;20000;-85
2023/07/10 05:36:06;;;;;;;;;;;;;;;27.82;38.00;101808.22;5048427;28;19924;-85
2023/07/10 05:38:33;;;;;;;;;;;;;;;27.94;38.04;101819.28;5049746;28;20305;-85
2023/07/10 05:40:58;;;;;;;;;;;;;;;27.99;37.73;101819.06;5054783;28;19928;-85
2023/07/10 05:43:24;;;;;;;;;;;;;;;28.03;37.83;101816.47;5051642;28;19920;-85
2023/07/10 05:45:51;;;;;;;;;;;;;;;28.05;37.61;101807.84;5051045;28;20042;-85
2023/07/10 05:48:17;;;;;;;;;;;;;;;28.10;37.79;101808.44;5050630;28;19959;-86
2023/07/10 05:50:43;;;;;;;;;;;;;;;28.18;37.53;101810.25;5053738;28;19952;-85
2023/07/10 05:53:08;;;;;;;;;;;;;;;28.32;37.78;101821.00;5054480;28;19920;-85
2023/07/10 05:55:34;;;;;;;;;;;;;;;28.48;37.26;101812.88;5058741;28;20289;-86
2023/07/10 05:57:59;;;;;;;;;;;;;;;28.65;37.02;101817.34;5053929;28;20011;-85
2023/07/10 06:00:25;;;;;;;;;;;;;;;28.79;36.93;101821.38;5055574;28;20002;-85
2023/07/10 06:02:50;;;;;;;;;;;;;;;28.89;36.91;101812.63;5057755;28;19931;-86
2023/07/10 06:05:15;;;;;;;;;;;;;;;28.95;36.72;101815.97;5059380;28;19925;-86
2023/07/10 06:07:41;;;;;;;;;;;;;;;28.96;37.07;101811.28;5060603;28;19921;-85
2023/07/10 06:10:08;;;;;;;;;;;;;;;28.92;36.76;101813.94;5060729;28;20149;-85
2023/07/10 06:12:33;;;;;;;;;;;;;;;28.90;36.78;101827.22;5061563;28;19917;-85
2023/07/10 06:14:58;;;;;;;;;;;;;;;28.92;37.23;101847.03;5065563;28;19930;-85
2023/07/10 06:17:24;;;;;;;;;;;;;;;28.94;36.90;101869.56;5059983;28;20342;-86
2023/07/10 06:19:49;;;;;;;;;;;;;;;28.90;37.19;101874.13;5063900;28;19924;-86
2023/07/10 06:22:14;;;;;;;;;;;;;;;28.85;36.96;101874.34;5061858;28;19961;-85
2023/07/10 06:24:40;;;;;;;;;;;;;;;28.84;37.07;101892.03;5065583;28;20389;-85
2023/07/10 06:27:06;;;;;;;;;;;;;;;28.83;37.16;101895.94;5064003;28;20140;-85
2023/07/10 06:29:34;;;;;;;;;;;;;;;28.82;37.30;101902.63;5061013;28;19923;-84
2023/07/10 06:32:00;;;;;;;;;;;;;;;28.79;37.23;101912.38;5060596;28;19943;-85
2023/07/10 06:34:25;;;;;;;;;;;;;;;28.76;37.19;101929.63;5061346;28;20514;-85
2023/07/10 06:36:50;;;;;;;;;;;;;;;28.73;37.43;101941.34;5061814;28;19921;-85
2023/07/10 06:39:17;;;;;;;;;;;;;;;28.70;37.61;101946.72;5062808;28;19974;-85
2023/07/10 06:41:42;;;;;;;;;;;;;;;28.67;37.71;101945.44;5058275;28;19932;-83
2023/07/10 06:44:07;;;;;;;;;;;;;;;28.65;37.61;101947.75;5058261;28;19924;-84
2023/07/10 06:46:33;;;;;;;;;;;;;;;28.67;37.60;101947.41;5056841;28;20270;-83
2023/07/10 06:48:59;;;;;;;;;;;;;;;28.68;37.84;101933.28;5060400;28;19916;-83
2023/07/10 06:51:24;;;;;;;;;;;;;;;28.69;37.84;101925.81;5056711;28;19920;-82
2023/07/10 06:53:49;;;;;;;;;;;;;;;28.68;38.60;101929.72;5058630;28;20296;-83
2023/07/10 06:56:14;;;;;;;;;;;;;;;28.66;38.66;101926.50;5062039;28;20139;-82
2023/07/10 06:58:40;;;;;;;;;;;;;;;28.64;39.12;101904.78;5061524;28;19948;-83
2023/07/10 07:01:05;;;;;;;;;;;;;;;28.67;39.07;101897.78;5059544;28;20257;-83
2023/07/10 07:03:30;;;;;;;;;;;;;;;28.73;39.15;101891.72;5052733;28;19998;-83
2023/07/10 07:05:55;;;;;;;;;;;;;;;28.77;39.38;101878.84;5052424;28;20048;-84
2023/07/10 07:08:21;;;;;;;;;;;;;;;28.78;39.87;101868.59;5052803;28;19921;-84
2023/07/10 07:10:48;;;;;;;;;;;;;;;28.75;39.54;101852.75;5056061;28;20030;-83
2023/07/10 07:13:13;;;;;;;;;;;;;;;28.75;39.02;101838.97;5058744;28;20015;-83
2023/07/10 07:15:39;;;;;;;;;;;;;;;28.76;39.30;101829.53;5051843;28;20372;-83
2023/07/10 07:18:04;;;;;;;;;;;;;;;28.79;39.48;101815.06;5054314;28;19928;-83
2023/07/10 07:20:30;;;;;;;;;;;;;;;28.85;39.05;101811.69;5052476;28;20391;-83
2023/07/10 07:22:55;;;;;;;;;;;;;;;28.93;39.35;101798.97;5052974;28;20017;-83
2023/07/10 07:25:21;;;;;;;;;;;;;;;28.99;39.57;101799.53;5049233;28;20031;-83
2023/07/10 07:27:46;;;;;;;;;;;;;;;29.03;39.30;101795.72;5050438;28;19950;-83
2023/07/10 07:30:12;;;;;;;;;;;;;;;29.07;39.58;101798.59;5049484;28;20343;-83
2023/07/10 07:32:37;;;;;;;;;;;;;;;29.11;39.60;101797.56;5057341;28;19920;-84
2023/07/10 07:35:02;;;;;;;;;;;;;;;29.14;39.56;101788.59;5052620;28;19921;-84
2023/07/10 07:37:28;;;;;;;;;;;;;;;29.15;39.85;101778.34;5050081;28;20316;-84
2023/07/10 07:39:54;;;;;;;;;;;;;;;29.15;39.74;101759.81;5053987;28;19932;-84
2023/07/10 07:42:20;;;;;;;;;;;;;;;29.21;39.85;101751.28;5052082;28;20010;-83
2023/07/10 07:44:45;;;;;;;;;;;;;;;29.24;39.77;101739.56;5051326;28;20407;-83
2023/07/10 07:47:11;;;;;;;;;;;;;;;29.27;39.69;101734.16;5051865;28;19931;-84
2023/07/10 07:49:36;;;;;;;;;;;;;;;29.31;40.07;101728.72;5055722;28;19977;-84
2023/07/10 07:52:01;;;;;;;;;;;;;;;29.31;39.96;101748.03;5053396;28;19920;-83
2023/07/10 07:54:26;;;;;;;;;;;;;;;29.29;39.97;101744.84;5051522;28;19943;-84
2023/07/10 07:56:52;;;;;;;;;;;;;;;29.18;40.20;101742.56;5049075;28;20395;-83
2023/07/10 07:59:18;;;;;;;;;;;;;;;29.13;39.86;101731.78;5056935;28;19956;-84
2023/07/10 08:01:43;;;;;;;;;;;;;;;29.17;40.12;101724.41;5052715;28;19920;-84
2023/07/10 08:04:09;;;;;;;;;;;;;;;29.23;39.84;101724.94;5052986;28;19950;-84
2023/07/10 08:06:34;;;;;;;;;;;;;;;29.30;39.65;101727.13;5049687;28;19925;-83
2023/07/10 08:09:00;;;;;;;;;;;;;;;29.35;39.85;101716.63;5049971;28;20499;-83
2023/07/10 08:11:25;;;;;;;;;;;;;;;29.46;39.68;101726.03;5053323;28;20039;-83
2023/07/10 08:13:51;;;;;;;;;;;;;;;29.58;39.78;101722.38;5051999;28;19940;-84
2023/07/10 08:16:16;;;;;;;;;;;;;;;29.67;39.15;101716.72;5053793;28;19927;-84
2023/07/10 08:18:42;;;;;;;;;;;;;;;29.82;39.57;101709.59;5052595;28;20123;-84
2023/07/10 08:21:08;;;;;;;;;;;;;;;30.02;39.49;101703.81;5057089;28;19921;-84
2023/07/10 08:23:34;;;;;;;;;;;;;;;30.26;38.86;101718.59;5053005;28;19917;-84
2023/07/10 08:25:59;;;;;;;;;;;;;;;30.49;38.89;101713.22;5055678;28;19932;-84
2023/07/10 08:28:25;;;;;;;;;;;;;;;30.73;38.89;101713.00;5052485;28;19921;-84
2023/07/10 08:30:50;;;;;;;;;;;;;;;30.97;38.41;101718.25;5048388;28;19927;-84
2023/07/10 08:33:15;;;;;;;;;;;;;;;31.19;38.06;101722.28;5050938;28;19924;-84
2023/07/10 08:35:41;;;;;;;;;;;;;;;31.33;37.38;101710.69;5052310;28;20194;-84
2023/07/10 08:38:06;;;;;;;;;;;;;;;31.43;37.27;101721.19;5052242;28;20376;-84
2023/07/10 08:40:33;;;;;;;;;;;;;;;31.56;37.42;101719.81;5049195;28;19932;-84
2023/07/10 08:42:59;;;;;;;;;;;;;;;31.75;37.74;101715.44;5049822;28;19917;-84
2023/07/10 08:45:31;;;;;;;;;;;;;;;31.97;36.93;101705.53;5047726;28;19921;-84
2023/07/10 08:48:01;;;;;;;;;;;;;;;32.24;37.00;101692.47;5053337;28;19975;-84
2023/07/10 08:50:30;;;;;;;;;;;;;;;32.47;36.53;101684.91;5049486;28;19917;-84
2023/07/10 08:53:08;;;;;;;;;;;;;;;32.65;36.07;101685.94;5053620;28;20279;-84
2023/07/10 08:55:42;;;;;;;;;;;;;;;32.82;35.94;101681.03;5056774;28;19920;-84
2023/07/10 08:58:17;;;;;;;;;;;;;;;32.99;35.20;101681.25;5050165;28;19925;-84
2023/07/10 09:00:44;;;;;;;;;;;;;;;33.23;34.74;101681.94;5052842;28;20003;-84
2023/07/10 09:03:19;;;;;;;;;;;;;;;33.39;34.73;101678.94;5056464;28;19950;-88
2023/07/10 09:05:48;;;;;;;;;;;;;;;33.57;34.78;101666.00;5052446;28;20628;-88
2023/07/10 09:08:14;;;;;;;;;;;;;;;33.80;33.97;101663.84;5049950;28;20061;-88
2023/07/10 09:10:48;;;;;;;;;;;;;;;33.98;33.63;101666.78;5050767;28;19916;-88
2023/07/10 09:13:16;;;;;;;;;;;;;;;34.18;33.82;101670.88;5052414;28;20017;-88
2023/07/10 09:16:02;;;;;;;;;;;;;;;34.36;33.53;101667.44;5050628;28;20355;-88
2023/07/10 09:18:30;;;;;;;;;;;;;;;34.47;32.84;101671.91;5059011;28;19928;-88
2023/07/10 09:20:57;;;;;;;;;;;;;;;34.45;33.16;101660.31;5054249;28;20455;-88
2023/07/10 09:23:30;;;;;;;;;;;;;;;34.50;33.20;101664.75;5051086;28;20099;-88
2023/07/10 09:25:57;;;;;;;;;;;;;;;34.63;33.25;101660.41;5056301;28;19917;-88
2023/07/10 09:28:23;;;;;;;;;;;;;;;34.79;32.80;101672.00;5055177;28;20381;-89
2023/07/10 09:31:00;;;;;;;;;;;;;;;35.01;32.19;101664.59;5054236;28;19920;-88
2023/07/10 09:33:50;;;;;;;;;;;;;;;35.24;31.66;101669.00;5054535;28;19952;-88
2023/07/10 09:36:16;;;;;;;;;;;;;;;35.45;31.25;101671.03;5055274;28;20376;-87
2023/07/10 09:38:43;;;;;;;;;;;;;;;35.61;30.74;101665.88;5057559;28;19951;-88
2023/07/10 09:41:13;;;;;;;;;;;;;;;35.71;29.98;101667.84;5058765;28;20015;-88
2023/07/10 09:43:47;;;;;;;;;;;;;;;35.81;30.75;101664.28;5058231;28;20324;-89
2023/07/10 09:46:12;;;;;;;;;;;;;;;35.96;29.70;101667.88;5059327;28;19924;-88
2023/07/10 09:48:38;;;;;;;;;;;;;;;36.03;29.64;101665.09;5058584;28;19927;-88
2023/07/10 09:51:06;;;;;;;;;;;;;;;36.18;29.48;101669.44;5054834;28;19920;-88
2023/07/10 09:53:33;;;;;;;;;;;;;;;36.25;28.92;101661.03;5056558;28;19971;-88
2023/07/10 09:55:59;;;;;;;;;;;;;;;36.38;28.89;101657.84;5052478;28;19944;-88
2023/07/10 09:58:24;;;;;;;;;;;;;;;36.42;28.71;101645.47;5058722;28;20416;-89
2023/07/10 10:00:50;;;;;;;;;;;;;;;36.52;28.46;101647.44;5057969;28;20303;-88
2023/07/10 10:03:18;;;;;;;;;;;;;;;36.52;27.80;101646.66;5055627;28;20350;-89
2023/07/10 10:05:48;;;;;;;;;;;;;;;36.63;27.60;101636.25;5055350;28;19921;-87
2023/07/10 10:08:20;;;;;;;;;;;;;;;36.75;28.04;101643.34;5057261;28;19966;-88
2023/07/10 10:11:04;;;;;;;;;;;;;;;36.94;27.67;101639.28;5056962;28;19920;-88
2023/07/10 10:13:31;;;;;;;;;;;;;;;37.09;26.83;101624.03;5063868;28;19928;-88
2023/07/10 10:16:02;;;;;;;;;;;;;;;37.09;27.18;101624.81;5058976;28;19924;-88
2023/07/10 10:18:43;;;;;;;;;;;;;;;37.15;26.75;101628.75;5064662;28;20018;-89
2023/07/10 10:21:14;;;;;;;;;;;;;;;37.15;26.63;101630.75;5065440;28;19920;-90
2023/07/10 10:23:40;;;;;;;;;;;;;;;37.07;25.10;101641.19;5059979;28;19917;-89
2023/07/10 10:26:21;;;;;;;;;;;;;;;37.00;25.69;101638.47;5055316;28;19983;-88
2023/07/10 10:28:51;;;;;;;;;;;;;;;36.96;26.26;101634.09;5055338;28;20087;-90
2023/07/10 10:31:20;;;;;;;;;;;;;;;37.13;26.05;101633.19;5057130;28;19924;-89
2023/07/10 10:33:51;;;;;;;;;;;;;;;37.25;25.45;101632.69;5058744;28;19924;-89
2023/07/10 10:36:19;;;;;;;;;;;;;;;37.23;25.86;101629.53;5060013;28;19932;-89
2023/07/10 10:39:03;;;;;;;;;;;;;;;37.16;24.25;101626.75;5052543;28;20277;-89
2023/07/10 10:41:29;;;;;;;;;;;;;;;37.18;25.59;101621.59;5057636;28;20003;-89
2023/07/10 10:44:00;;;;;;;;;;;;;;;37.38;25.29;101622.66;5055754;28;19996;-89
2023/07/10 10:46:31;;;;;;;;;;;;;;;37.55;25.49;101617.31;5056680;28;20399;-89
2023/07/10 10:49:10;;;;;;;;;;;;;;;37.69;24.55;101619.97;5062062;28;19937;-90
2023/07/10 10:52:04;;;;;;;;;;;;;;;37.70;24.92;101618.75;5055800;28;20105;-89
2023/07/10 10:54:39;;;;;;;;;;;;;;;37.65;24.48;101619.22;5043307;28;20011;-89
2023/07/10 10:57:28;;;;;;;;;;;;;;;37.65;24.89;101614.41;5057246;28;19928;-90
2023/07/10 10:59:53;;;;;;;;;;;;;;;37.83;25.02;101608.69;5056122;28;19921;-90
2023/07/10 11:02:39;;;;;;;;;;;;;;;37.95;23.82;101618.56;5059307;28;19921;-90
2023/07/10 11:05:12;;;;;;;;;;;;;;;37.96;23.73;101609.75;5057331;28;19939;-89
2023/07/10 11:07:40;;;;;;;;;;;;;;;38.01;23.06;101609.28;5054185;28;19928;-89
2023/07/10 11:10:12;;;;;;;;;;;;;;;38.08;23.29;101605.63;5049974;28;19924;-88
2023/07/10 11:12:37;;;;;;;;;;;;;;;38.15;22.82;101599.16;5059786;28;20315;-89
2023/07/10 11:15:11;;;;;;;;;;;;;;;38.20;22.91;101599.50;5060895;28;19917;-89
2023/07/10 11:17:37;;;;;;;;;;;;;;;38.30;22.84;101603.41;5059778;28;19966;-89
2023/07/10 11:20:04;;;;;;;;;;;;;;;38.42;22.75;101596.44;5056718;28;19952;-89
2023/07/10 11:22:33;;;;;;;;;;;;;;;38.63;22.61;101587.78;5054360;28;20432;-89
2023/07/10 11:25:01;;;;;;;;;;;;;;;38.75;22.42;101587.22;5059690;28;19920;-89
2023/07/10 11:27:41;;;;;;;;;;;;;;;38.77;22.69;101584.00;5062982;28;19924;-89
2023/07/10 11:30:14;;;;;;;;;;;;;;;38.74;22.75;101584.84;5058463;28;19943;-90
2023/07/10 11:32:54;;;;;;;;;;;;;;;38.65;22.38;101580.56;5063347;28;19930;-88
2023/07/10 11:35:20;;;;;;;;;;;;;;;38.61;22.75;101579.78;5059348;28;19921;-88
2023/07/10 11:37:49;;;;;;;;;;;;;;;38.61;22.76;101577.00;5058615;28;19921;-89
2023/07/10 11:40:23;;;;;;;;;;;;;;;38.72;22.25;101574.06;5058109;28;19970;-89
2023/07/10 11:42:49;;;;;;;;;;;;;;;38.63;22.49;101569.00;5058330;28;19920;-90
2023/07/10 11:45:14;;;;;;;;;;;;;;;38.68;22.62;101560.13;5051606;28;19943;-90
2023/07/10 11:47:43;;;;;;;;;;;;;;;38.93;22.30;101558.94;5058401;28;20387;-89
2023/07/10 11:50:16;;;;;;;;;;;;;;;38.98;21.68;101561.28;5053214;28;19921;-91
2023/07/10 11:52:42;;;;;;;;;;;;;;;38.98;21.82;101550.84;5059128;28;20212;-89
2023/07/10 11:55:11;;;;;;;;;;;;;;;38.98;21.46;101561.28;5062741;28;20002;-89
2023/07/10 11:57:36;;;;;;;;;;;;;;;38.95;21.57;101559.28;5053832;28;19920;-86
2023/07/10 12:00:13;;;;;;;;;;;;;;;38.91;21.57;101550.94;5060190;28;19923;-88
2023/07/10 12:02:48;;;;;;;;;;;;;;;38.87;21.31;101552.22;5059195;28;19921;-87
2023/07/10 12:05:34;;;;;;;;;;;;;;;38.73;21.37;101552.44;5060075;28;19927;-87
2023/07/10 12:08:03;;;;;;;;;;;;;;;38.51;20.69;101549.13;5061380;28;20403;-87
2023/07/10 12:10:29;;;;;;;;;;;;;;;38.44;21.48;101547.25;5057591;28;19917;-87
2023/07/10 12:12:55;;;;;;;;;;;;;;;38.40;21.50;101549.28;5054867;28;20263;-86
2023/07/10 12:15:21;;;;;;;;;;;;;;;38.35;21.60;101541.34;5058336;28;20357;-86
2023/07/10 12:17:46;;;;;;;;;;;;;;;38.40;21.48;101538.06;5057121;28;19974;-86
2023/07/10 12:20:24;;;;;;;;;;;;;;;38.51;21.83;101532.34;5057967;28;19960;-84
2023/07/10 12:22:51;;;;;;;;;;;;;;;38.78;21.77;101529.56;5058869;28;19920;-86
2023/07/10 12:25:17;;;;;;;;;;;;;;;39.09;21.76;101536.69;5059527;28;20458;-86
2023/07/10 12:27:42;;;;;;;;;;;;;;;39.38;21.52;101536.22;5051141;28;19920;-86
2023/07/10 12:30:16;;;;;;;;;;;;;;;39.61;21.32;101541.00;5055590;28;19920;-86
2023/07/10 12:32:41;;;;;;;;;;;;;;;39.67;20.96;101540.06;5059513;28;19921;-86
2023/07/10 12:35:14;;;;;;;;;;;;;;;39.70;20.92;101530.81;5052827;28;20411;-86
2023/07/10 12:37:42;;;;;;;;;;;;;;;39.69;21.12;101532.06;5055210;28;20174;-86